createdAt,value
2018-08-20T00:02:03.883Z,99.90
2018-08-20T00:04:37.662Z,99.90
2018-08-20T00:07:06.232Z,99.90
2018-08-20T00:09:40.167Z,99.90
2018-08-20T00:12:09.799Z,99.90
2018-08-20T00:14:38.471Z,99.90
2018-08-20T00:17:06.980Z,99.90
2018-08-20T00:19:35.548Z,99.90
2018-08-20T00:22:04.141Z,99.90
2018-08-20T00:24:32.678Z,99.90
2018-08-20T00:27:02.620Z,99.90
2018-08-20T00:29:31.590Z,99.90
2018-08-20T00:32:00.136Z,99.90
2018-08-20T00:34:28.706Z,99.90
2018-08-20T00:36:57.224Z,99.90
2018-08-20T00:39:25.758Z,99.90
2018-08-20T00:41:54.280Z,99.90
2018-08-20T00:44:22.806Z,99.90
2018-08-20T00:46:51.370Z,99.90
2018-08-20T00:49:19.885Z,99.90
2018-08-20T00:51:48.410Z,99.90
2018-08-20T00:54:16.976Z,99.90
2018-08-20T00:56:45.520Z,99.90
2018-08-20T00:59:14.093Z,99.90
2018-08-20T01:01:42.654Z,99.90
2018-08-20T01:04:11.221Z,99.90
2018-08-20T01:06:39.758Z,99.90
2018-08-20T01:09:09.118Z,99.90
2018-08-20T01:11:37.916Z,99.90
2018-08-20T01:14:06.454Z,99.90
2018-08-20T01:16:34.983Z,99.90
2018-08-20T01:19:03.520Z,99.90
2018-08-20T01:21:32.129Z,99.90
2018-08-20T01:24:00.725Z,99.90
2018-08-20T01:26:29.319Z,99.90
2018-08-20T01:28:57.836Z,99.90
2018-08-20T01:31:26.423Z,99.90
2018-08-20T01:33:54.950Z,99.90
2018-08-20T01:36:23.495Z,99.90
2018-08-20T01:38:52.011Z,99.90
2018-08-20T01:41:20.547Z,99.90
2018-08-20T01:43:49.075Z,99.90
2018-08-20T01:46:17.615Z,99.90
2018-08-20T01:48:46.150Z,99.90
2018-08-20T01:51:14.763Z,99.90
2018-08-20T01:53:43.269Z,99.90
2018-08-20T01:56:11.845Z,99.90
2018-08-20T01:58:40.471Z,99.90
2018-08-20T02:01:09.169Z,99.90
2018-08-20T02:03:37.765Z,99.90
2018-08-20T02:06:06.391Z,99.90
2018-08-20T02:08:34.913Z,99.90
2018-08-20T02:11:03.526Z,99.90
2018-08-20T02:13:32.037Z,99.90
2018-08-20T02:16:00.619Z,99.90
2018-08-20T02:18:29.204Z,99.90
2018-08-20T02:20:57.779Z,99.90
2018-08-20T02:23:26.308Z,99.90
2018-08-20T02:25:54.852Z,99.90
2018-08-20T02:28:23.408Z,99.90
2018-08-20T02:30:51.934Z,99.90
2018-08-20T02:33:20.422Z,99.90
2018-08-20T02:35:49.008Z,99.90
2018-08-20T02:38:17.603Z,99.90
2018-08-20T02:40:46.200Z,99.90
2018-08-20T02:43:14.769Z,99.90
2018-08-20T02:45:43.364Z,99.90
2018-08-20T02:48:11.954Z,99.90
2018-08-20T02:50:40.533Z,99.90
2018-08-20T02:53:09.116Z,99.90
2018-08-20T02:55:37.683Z,99.90
2018-08-20T02:58:06.248Z,99.90
2018-08-20T03:00:34.800Z,99.90
2018-08-20T03:03:03.911Z,99.90
2018-08-20T03:05:33.187Z,99.90
2018-08-20T03:08:01.755Z,99.90
2018-08-20T03:10:30.347Z,99.90
2018-08-20T03:12:58.988Z,99.90
2018-08-20T03:15:27.549Z,99.90
2018-08-20T03:17:56.143Z,99.90
2018-08-20T03:20:24.677Z,99.90
2018-08-20T03:22:53.211Z,99.90
2018-08-20T03:25:21.805Z,99.90
2018-08-20T03:27:50.325Z,99.90
2018-08-20T03:30:18.927Z,99.90
2018-08-20T03:32:47.478Z,99.90
2018-08-20T03:35:15.980Z,99.90
2018-08-20T03:37:44.530Z,99.90
2018-08-20T03:40:13.658Z,99.90
2018-08-20T03:42:42.654Z,99.90
2018-08-20T03:45:11.552Z,99.90
2018-08-20T03:47:40.182Z,99.90
2018-08-20T03:50:11.318Z,99.90
2018-08-20T03:52:39.939Z,99.90
2018-08-20T03:55:08.506Z,99.90
2018-08-20T03:57:37.434Z,99.90
2018-08-20T04:00:06.408Z,99.90
2018-08-20T04:02:34.970Z,99.90
2018-08-20T04:05:03.614Z,99.90
2018-08-20T04:07:32.150Z,99.90
2018-08-20T04:10:00.702Z,99.90
2018-08-20T04:12:29.216Z,99.90
2018-08-20T04:14:57.758Z,99.90
2018-08-20T04:17:26.266Z,99.90
2018-08-20T04:19:54.842Z,99.90
2018-08-20T04:22:23.347Z,99.90
2018-08-20T04:24:51.971Z,99.90
2018-08-20T04:27:20.526Z,99.90
2018-08-20T04:29:49.113Z,99.90
2018-08-20T04:32:17.643Z,99.90
2018-08-20T04:34:46.168Z,99.90
2018-08-20T04:37:14.676Z,99.90
2018-08-20T04:39:43.213Z,99.90
2018-08-20T04:42:11.823Z,99.90
2018-08-20T04:44:40.268Z,99.90
2018-08-20T04:47:08.860Z,99.90
2018-08-20T04:49:37.405Z,99.90
2018-08-20T04:52:06.111Z,99.90
2018-08-20T04:54:34.654Z,99.90
2018-08-20T04:57:03.241Z,99.90
2018-08-20T04:59:31.764Z,99.90
2018-08-20T05:02:00.327Z,99.90
2018-08-20T05:04:28.907Z,99.90
2018-08-20T05:06:57.414Z,99.90
2018-08-20T05:09:25.974Z,99.90
2018-08-20T05:11:54.521Z,99.90
2018-08-20T05:14:23.122Z,99.90
2018-08-20T05:16:51.664Z,99.90
2018-08-20T05:19:20.168Z,99.90
2018-08-20T05:21:48.712Z,99.90
2018-08-20T05:24:17.320Z,99.90
2018-08-20T05:26:45.860Z,99.90
2018-08-20T05:29:14.478Z,99.90
2018-08-20T05:31:42.993Z,99.90
2018-08-20T05:34:11.510Z,99.90
2018-08-20T05:36:40.016Z,99.90
2018-08-20T05:39:10.204Z,99.90
2018-08-20T05:41:38.732Z,99.90
2018-08-20T05:44:07.370Z,99.90
2018-08-20T05:46:36.003Z,99.90
2018-08-20T05:49:04.562Z,99.90
2018-08-20T05:51:33.162Z,99.90
2018-08-20T05:54:01.781Z,99.90
2018-08-20T05:56:30.356Z,99.90
2018-08-20T05:58:58.955Z,99.90
2018-08-20T06:01:27.623Z,99.90
2018-08-20T06:03:56.163Z,99.90
2018-08-20T06:06:24.704Z,99.90
2018-08-20T06:08:53.216Z,99.90
2018-08-20T06:11:21.786Z,99.90
2018-08-20T06:13:50.329Z,99.90
2018-08-20T06:16:18.949Z,99.90
2018-08-20T06:18:47.547Z,99.90
2018-08-20T06:21:16.095Z,99.90
2018-08-20T06:23:44.709Z,99.90
2018-08-20T06:26:13.291Z,99.90
2018-08-20T06:28:41.873Z,99.90
2018-08-20T06:31:10.369Z,99.90
2018-08-20T06:33:38.952Z,99.90
2018-08-20T06:36:07.542Z,99.90
2018-08-20T06:38:36.075Z,99.90
2018-08-20T06:41:04.749Z,99.90
2018-08-20T06:43:33.288Z,99.90
2018-08-20T06:46:01.853Z,99.80
2018-08-20T06:48:30.432Z,97.50
2018-08-20T06:50:58.967Z,97.90
2018-08-20T06:53:27.544Z,97.50
2018-08-20T06:55:56.080Z,97.10
2018-08-20T06:58:24.624Z,97.50
2018-08-20T07:00:53.213Z,97.80
2018-08-20T07:03:21.726Z,98.00
2018-08-20T07:05:50.232Z,98.00
2018-08-20T07:08:18.965Z,97.10
2018-08-20T07:10:48.487Z,97.30
2018-08-20T07:13:36.272Z,96.60
2018-08-20T07:16:05.723Z,95.20
2018-08-20T07:18:34.276Z,94.00
2018-08-20T07:21:02.800Z,94.30
2018-08-20T07:23:31.651Z,95.20
2018-08-20T07:26:00.138Z,95.50
2018-08-20T07:28:28.689Z,93.80
2018-08-20T07:30:57.258Z,93.50
2018-08-20T07:33:25.856Z,93.20
2018-08-20T07:35:54.436Z,94.00
2018-08-20T07:38:23.023Z,92.50
2018-08-20T07:40:51.536Z,93.00
2018-08-20T07:43:20.112Z,91.90
2018-08-20T07:45:48.656Z,91.50
2018-08-20T07:48:17.230Z,91.60
2018-08-20T07:50:45.744Z,91.10
2018-08-20T07:53:14.279Z,92.00
2018-08-20T07:55:42.851Z,91.30
2018-08-20T07:58:11.447Z,91.00
2018-08-20T08:00:40.011Z,88.90
2018-08-20T08:03:08.634Z,91.40
2018-08-20T08:05:37.207Z,89.10
2018-08-20T08:08:05.906Z,91.10
2018-08-20T08:10:34.476Z,86.70
2018-08-20T08:13:03.064Z,89.50
2018-08-20T08:15:31.659Z,87.30
2018-08-20T08:18:00.218Z,86.20
2018-08-20T08:20:28.736Z,85.60
2018-08-20T08:22:57.273Z,84.60
2018-08-20T08:25:25.827Z,84.30
2018-08-20T08:27:54.349Z,85.20
2018-08-20T08:30:22.952Z,83.30
2018-08-20T08:32:51.492Z,84.50
2018-08-20T08:35:20.109Z,87.90
2018-08-20T08:37:48.660Z,84.20
2018-08-20T08:40:17.255Z,82.60
2018-08-20T08:42:45.831Z,82.80
2018-08-20T08:45:16.776Z,80.40
2018-08-20T08:47:45.758Z,80.60
2018-08-20T08:50:15.596Z,78.30
2018-08-20T08:52:44.244Z,79.60
2018-08-20T08:55:12.820Z,78.70
2018-08-20T08:57:41.329Z,79.30
2018-08-20T09:00:15.176Z,80.40
2018-08-20T09:02:43.868Z,79.40
2018-08-20T09:05:12.859Z,79.10
2018-08-20T09:07:42.253Z,79.40
2018-08-20T09:10:11.381Z,77.70
2018-08-20T09:12:39.974Z,81.80
2018-08-20T09:15:14.399Z,83.20
2018-08-20T09:17:43.351Z,79.40
2018-08-20T09:20:14.178Z,79.80
2018-08-20T09:22:43.055Z,79.70
2018-08-20T09:25:12.599Z,78.90
2018-08-20T09:27:41.873Z,78.80
2018-08-20T09:30:15.173Z,80.30
2018-08-20T09:32:44.369Z,81.60
2018-08-20T09:35:12.969Z,79.60
2018-08-20T09:37:41.583Z,78.60
2018-08-20T09:40:10.929Z,80.00
2018-08-20T09:42:40.421Z,79.20
2018-08-20T09:45:09.099Z,83.60
2018-08-20T09:47:38.704Z,84.40
2018-08-20T09:50:08.858Z,79.30
2018-08-20T09:52:37.403Z,81.40
2018-08-20T09:55:06.422Z,78.50
2018-08-20T09:57:34.994Z,78.30
2018-08-20T10:00:03.925Z,78.50
2018-08-20T10:02:32.476Z,78.00
2018-08-20T10:05:01.142Z,78.60
2018-08-20T10:07:29.844Z,78.80
2018-08-20T10:09:58.322Z,78.80
2018-08-20T10:12:26.886Z,81.60
2018-08-20T10:14:55.407Z,77.40
2018-08-20T10:17:23.927Z,75.70
2018-08-20T10:19:52.507Z,75.70
2018-08-20T10:22:21.069Z,75.90
2018-08-20T10:24:49.600Z,77.50
2018-08-20T10:27:18.161Z,75.70
2018-08-20T10:29:46.693Z,76.50
2018-08-20T10:32:15.239Z,75.70
2018-08-20T10:34:43.786Z,72.60
2018-08-20T10:37:12.295Z,72.70
2018-08-20T10:39:40.808Z,75.60
2018-08-20T10:42:09.458Z,75.20
2018-08-20T10:44:43.401Z,77.20
2018-08-20T10:47:12.143Z,75.10
2018-08-20T10:49:40.677Z,73.30
2018-08-20T10:52:09.164Z,75.70
2018-08-20T10:54:37.796Z,72.30
2018-08-20T10:57:06.844Z,69.70
2018-08-20T10:59:35.771Z,67.50
2018-08-20T11:02:04.405Z,69.10
2018-08-20T11:04:32.963Z,68.80
2018-08-20T11:07:01.639Z,70.40
2018-08-20T11:09:30.194Z,70.70
2018-08-20T11:11:58.738Z,71.40
2018-08-20T11:14:27.294Z,71.50
2018-08-20T11:16:55.828Z,71.20
2018-08-20T11:19:24.424Z,74.50
2018-08-20T11:21:52.928Z,73.30
2018-08-20T11:24:21.448Z,72.40
2018-08-20T11:26:50.556Z,73.40
2018-08-20T11:29:19.836Z,74.60
2018-08-20T11:31:48.375Z,73.20
2018-08-20T11:34:17.092Z,68.40
2018-08-20T11:36:45.715Z,67.70
2018-08-20T11:39:14.161Z,66.20
2018-08-20T11:41:42.750Z,65.20
2018-08-20T11:44:11.273Z,64.00
2018-08-20T11:46:39.795Z,63.20
2018-08-20T11:49:08.410Z,64.30
2018-08-20T11:51:36.943Z,63.60
2018-08-20T11:54:05.524Z,62.10
2018-08-20T11:56:34.073Z,61.70
2018-08-20T11:59:02.688Z,61.00
2018-08-20T12:01:31.433Z,66.80
2018-08-20T12:04:00.557Z,60.30
2018-08-20T12:06:29.155Z,60.50
2018-08-20T12:08:57.701Z,61.90
2018-08-20T12:11:26.257Z,60.50
2018-08-20T12:13:54.777Z,60.50
2018-08-20T12:16:23.291Z,60.10
2018-08-20T12:18:51.893Z,59.30
2018-08-20T12:21:20.389Z,58.80
2018-08-20T12:23:48.919Z,61.10
2018-08-20T12:26:17.470Z,58.50
2018-08-20T12:28:46.019Z,59.10
2018-08-20T12:31:14.539Z,58.50
2018-08-20T12:33:43.079Z,57.60
2018-08-20T12:36:11.613Z,56.70
2018-08-20T12:38:40.139Z,57.30
2018-08-20T12:41:08.695Z,57.00
2018-08-20T12:43:37.234Z,57.90
2018-08-20T12:46:05.770Z,56.10
2018-08-20T12:48:34.325Z,56.90
2018-08-20T12:51:02.873Z,56.40
2018-08-20T12:53:31.441Z,55.40
2018-08-20T12:56:00.030Z,55.50
2018-08-20T12:58:28.572Z,56.70
2018-08-20T13:00:57.145Z,56.10
2018-08-20T13:03:25.666Z,56.60
2018-08-20T13:05:54.233Z,55.70
2018-08-20T13:08:22.778Z,56.30
2018-08-20T13:10:51.290Z,57.40
2018-08-20T13:13:19.862Z,57.80
2018-08-20T13:15:48.484Z,55.80
2018-08-20T13:18:17.017Z,55.80
2018-08-20T13:20:45.578Z,56.10
2018-08-20T13:23:14.130Z,56.00
2018-08-20T13:25:42.669Z,56.70
2018-08-20T13:28:11.272Z,55.80
2018-08-20T13:30:39.855Z,55.70
2018-08-20T13:33:08.450Z,57.60
2018-08-20T13:35:37.007Z,55.80
2018-08-20T13:38:05.713Z,55.80
2018-08-20T13:40:34.248Z,57.80
2018-08-20T13:43:02.803Z,56.20
2018-08-20T13:45:31.416Z,55.70
2018-08-20T13:47:59.965Z,55.90
2018-08-20T13:50:28.495Z,55.90
2018-08-20T13:52:57.032Z,56.00
2018-08-20T13:55:25.552Z,55.00
2018-08-20T13:57:54.091Z,55.60
2018-08-20T14:00:22.653Z,55.90
2018-08-20T14:02:51.305Z,55.10
2018-08-20T14:05:19.890Z,54.80
2018-08-20T14:07:48.625Z,54.50
2018-08-20T14:10:17.187Z,55.10
2018-08-20T14:12:45.712Z,56.50
2018-08-20T14:15:14.831Z,55.60
2018-08-20T14:17:45.999Z,55.00
2018-08-20T14:20:15.595Z,54.30
2018-08-20T14:22:44.963Z,54.00
2018-08-20T14:25:13.657Z,53.90
2018-08-20T14:27:42.150Z,54.70
2018-08-20T14:30:14.140Z,54.40
2018-08-20T14:32:43.161Z,54.70
2018-08-20T14:35:11.925Z,53.60
2018-08-20T14:37:40.868Z,55.40
2018-08-20T14:40:12.354Z,52.90
2018-08-20T14:42:40.988Z,53.20
2018-08-20T14:45:11.112Z,52.90
2018-08-20T14:47:40.589Z,54.20
2018-08-20T14:50:11.576Z,52.70
2018-08-20T14:52:40.545Z,51.80
2018-08-20T14:55:09.500Z,51.30
2018-08-20T14:57:38.276Z,49.60
2018-08-20T15:00:09.005Z,49.10
2018-08-20T15:02:37.628Z,51.20
2018-08-20T15:05:06.183Z,49.50
2018-08-20T15:07:36.333Z,49.50
2018-08-20T15:10:06.321Z,49.50
2018-08-20T15:12:34.883Z,51.30
2018-08-20T15:15:03.550Z,52.50
2018-08-20T15:17:32.041Z,53.40
2018-08-20T15:20:00.583Z,52.00
2018-08-20T15:22:29.148Z,51.70
2018-08-20T15:24:57.714Z,51.20
2018-08-20T15:27:26.227Z,52.50
2018-08-20T15:29:54.749Z,53.90
2018-08-20T15:32:23.263Z,52.90
2018-08-20T15:34:51.827Z,53.20
2018-08-20T15:37:20.371Z,54.50
2018-08-20T15:39:48.899Z,55.00
2018-08-20T15:42:17.733Z,55.00
2018-08-20T15:44:46.234Z,55.60
2018-08-20T15:47:14.764Z,55.60
2018-08-20T15:49:43.380Z,55.50
2018-08-20T15:52:12.034Z,55.20
2018-08-20T15:54:41.254Z,56.00
2018-08-20T15:57:09.860Z,56.60
2018-08-20T15:59:38.407Z,57.30
2018-08-20T16:02:07.157Z,58.10
2018-08-20T16:04:35.746Z,58.40
2018-08-20T16:07:04.349Z,57.50
2018-08-20T16:09:32.906Z,58.60
2018-08-20T16:12:01.464Z,57.50
2018-08-20T16:14:30.036Z,58.00
2018-08-20T16:16:58.595Z,58.50
2018-08-20T16:19:27.239Z,59.00
2018-08-20T16:21:55.828Z,58.60
2018-08-20T16:24:24.385Z,58.70
2018-08-20T16:26:52.946Z,59.70
2018-08-20T16:29:21.543Z,60.10
2018-08-20T16:31:50.220Z,60.50
2018-08-20T16:34:18.819Z,60.90
2018-08-20T16:36:47.444Z,61.90
2018-08-20T16:39:16.162Z,61.60
2018-08-20T16:41:44.720Z,61.30
2018-08-20T16:44:13.340Z,61.90
2018-08-20T16:46:41.966Z,60.60
2018-08-20T16:49:11.314Z,61.60
2018-08-20T16:51:39.923Z,61.50
2018-08-20T16:54:08.814Z,61.10
2018-08-20T16:56:37.421Z,62.30
2018-08-20T16:59:06.004Z,60.00
2018-08-20T17:01:34.541Z,61.60
2018-08-20T17:04:03.352Z,60.70
2018-08-20T17:06:46.901Z,61.60
2018-08-20T17:09:15.508Z,60.90
2018-08-20T17:11:44.096Z,61.10
2018-08-20T17:14:12.735Z,62.10
2018-08-20T17:16:41.299Z,59.30
2018-08-20T17:19:09.837Z,59.30
2018-08-20T17:21:38.543Z,60.60
2018-08-20T17:24:07.166Z,60.20
2018-08-20T17:26:35.744Z,59.80
2018-08-20T17:29:12.105Z,59.80
2018-08-20T17:31:40.705Z,59.80
2018-08-20T17:34:09.283Z,59.00
2018-08-20T17:36:39.385Z,59.30
2018-08-20T17:39:09.170Z,59.70
2018-08-20T17:41:41.842Z,60.30
2018-08-20T17:44:13.724Z,59.90
2018-08-20T17:46:46.266Z,60.20
2018-08-20T17:49:19.098Z,61.80
2018-08-20T17:51:49.720Z,63.10
2018-08-20T17:54:18.332Z,64.50
2018-08-20T17:56:46.898Z,65.40
2018-08-20T17:59:15.558Z,66.90
2018-08-20T18:01:44.171Z,67.60
2018-08-20T18:04:12.785Z,66.20
2018-08-20T18:06:52.242Z,67.50
2018-08-20T18:09:20.847Z,67.70
2018-08-20T18:11:50.772Z,67.80
2018-08-20T18:14:21.258Z,67.40
2018-08-20T18:16:49.815Z,68.50
2018-08-20T18:19:18.557Z,68.80
2018-08-20T18:21:47.340Z,69.40
2018-08-20T18:24:18.836Z,70.10
2018-08-20T18:26:51.796Z,71.40
2018-08-20T18:29:20.374Z,71.30
2018-08-20T18:31:53.149Z,72.80
2018-08-20T18:34:21.820Z,72.50
2018-08-20T18:36:50.444Z,72.10
2018-08-20T18:39:18.996Z,72.80
2018-08-20T18:41:56.953Z,72.20
2018-08-20T18:44:25.468Z,72.20
2018-08-20T18:46:54.394Z,72.40
2018-08-20T18:49:23.613Z,73.10
2018-08-20T18:51:58.450Z,73.70
2018-08-20T18:54:27.179Z,74.30
2018-08-20T18:57:01.057Z,74.40
2018-08-20T18:59:29.727Z,75.10
2018-08-20T19:01:58.279Z,75.40
2018-08-20T19:04:33.701Z,76.30
2018-08-20T19:07:07.298Z,77.10
2018-08-20T19:09:35.904Z,77.20
2018-08-20T19:12:05.080Z,77.30
2018-08-20T19:14:34.327Z,76.90
2018-08-20T19:17:03.686Z,76.10
2018-08-20T19:19:36.432Z,77.40
2018-08-20T19:22:06.611Z,77.80
2018-08-20T19:24:40.140Z,77.50
2018-08-20T19:27:10.585Z,78.00
2018-08-20T19:29:39.370Z,78.80
2018-08-20T19:32:08.969Z,79.10
2018-08-20T19:34:37.799Z,79.30
2018-08-20T19:37:07.151Z,78.80
2018-08-20T19:39:35.938Z,78.80
2018-08-20T19:42:05.182Z,78.90
2018-08-20T19:44:33.760Z,80.30
2018-08-20T19:47:02.342Z,80.30
2018-08-20T19:49:30.868Z,80.60
2018-08-20T19:51:59.576Z,80.50
2018-08-20T19:54:28.147Z,81.30
2018-08-20T19:56:56.705Z,80.20
2018-08-20T19:59:30.801Z,80.00
2018-08-20T20:01:59.379Z,79.70
2018-08-20T20:04:28.269Z,80.90
2018-08-20T20:06:56.905Z,81.20
2018-08-20T20:09:25.461Z,82.00
2018-08-20T20:11:54.135Z,82.60
2018-08-20T20:14:22.831Z,82.50
2018-08-20T20:16:53.599Z,83.60
2018-08-20T20:21:55.609Z,83.90
2018-08-20T20:24:24.190Z,85.00
2018-08-20T20:26:52.715Z,85.90
2018-08-20T20:29:21.314Z,86.60
2018-08-20T20:31:49.893Z,86.70
2018-08-20T20:34:18.519Z,86.50
2018-08-20T20:36:47.116Z,86.20
2018-08-20T20:39:15.682Z,86.60
2018-08-20T20:41:44.256Z,86.00
2018-08-20T20:44:12.848Z,84.90
2018-08-20T20:46:41.468Z,84.50
2018-08-20T20:49:10.044Z,84.00
2018-08-20T20:51:38.678Z,83.40
2018-08-20T20:54:07.251Z,82.90
2018-08-20T20:56:35.836Z,83.60
2018-08-20T20:59:04.498Z,83.90
2018-08-20T21:01:33.090Z,85.00
2018-08-20T21:04:04.560Z,86.20
2018-08-20T21:06:39.888Z,87.50
2018-08-20T21:09:10.739Z,86.90
2018-08-20T21:11:39.294Z,86.50
2018-08-20T21:14:08.183Z,87.50
2018-08-20T21:16:36.716Z,87.00
2018-08-20T21:19:05.534Z,87.60
2018-08-20T21:21:34.330Z,88.00
2018-08-20T21:24:06.190Z,88.10
2018-08-20T21:26:34.774Z,88.30
2018-08-20T21:29:03.352Z,88.40
2018-08-20T21:31:37.256Z,88.60
2018-08-20T21:34:05.821Z,89.20
2018-08-20T21:36:34.439Z,90.00
2018-08-20T21:39:03.151Z,90.30
2018-08-20T21:41:31.705Z,90.60
2018-08-20T21:44:00.296Z,90.80
2018-08-20T21:46:28.869Z,91.20
2018-08-20T21:48:57.450Z,90.80
2018-08-20T21:51:28.429Z,90.70
2018-08-20T21:53:57.175Z,90.90
2018-08-20T21:56:30.216Z,90.80
2018-08-20T21:58:58.856Z,90.70
2018-08-20T22:01:27.400Z,91.00
2018-08-20T22:03:56.039Z,91.30
2018-08-20T22:06:24.568Z,92.00
2018-08-20T22:08:53.120Z,91.70
2018-08-20T22:11:21.663Z,91.70
2018-08-20T22:13:50.233Z,91.40
2018-08-20T22:16:21.272Z,91.50
2018-08-20T22:18:54.835Z,91.40
2018-08-20T22:21:23.621Z,91.70
2018-08-20T22:23:52.671Z,91.80
2018-08-20T22:26:21.768Z,91.90
2018-08-20T22:28:52.037Z,92.20
2018-08-20T22:31:20.987Z,92.10
2018-08-20T22:33:56.051Z,92.20
2018-08-20T22:36:25.115Z,92.20
2018-08-20T22:38:54.859Z,92.40
2018-08-20T22:41:24.707Z,92.40
2018-08-20T22:43:53.278Z,92.60
2018-08-20T22:46:22.797Z,92.00
2018-08-20T22:48:53.091Z,92.30
2018-08-20T22:51:22.204Z,92.90
2018-08-20T22:53:54.934Z,93.40
2018-08-20T22:56:39.231Z,93.80
2018-08-20T22:59:12.004Z,93.90
2018-08-20T23:01:40.776Z,94.20
2018-08-20T23:04:09.572Z,94.10
2018-08-20T23:06:38.190Z,93.90
2018-08-20T23:09:23.383Z,93.30
2018-08-20T23:11:51.964Z,93.30
2018-08-20T23:14:20.518Z,93.80
2018-08-20T23:16:50.245Z,93.50
2018-08-20T23:19:19.094Z,93.70
2018-08-20T23:21:48.436Z,93.30
2018-08-20T23:24:17.564Z,93.50
2018-08-20T23:26:46.153Z,93.70
2018-08-20T23:29:14.668Z,93.80
2018-08-20T23:31:43.190Z,94.10
2018-08-20T23:34:14.389Z,94.30
2018-08-20T23:36:43.296Z,94.30
2018-08-20T23:39:13.872Z,94.40
2018-08-20T23:41:42.461Z,94.70
2018-08-20T23:44:11.212Z,95.10
2018-08-20T23:46:43.233Z,95.40
2018-08-20T23:49:11.839Z,95.40
2018-08-20T23:51:40.411Z,95.40
2018-08-20T23:54:10.007Z,95.30
2018-08-20T23:56:38.657Z,95.20
2018-08-20T23:59:07.183Z,95.60
